sensor_id;sensor_type;location;lat;lon;timestamp;P1;durP1;ratioP1;P2;durP2;ratioP2
23539;SDS011;11947;50.810;4.394;2023-06-22T00:00:21;6.57;;;4.50;;
23539;SDS011;11947;50.810;4.394;2023-06-22T00:02:47;7.38;;;4.53;;
23539;SDS011;11947;50.810;4.394;2023-06-22T00:05:14;9.20;;;4.80;;
23539;SDS011;11947;50.810;4.394;2023-06-22T00:07:45;8.55;;;3.83;;
23539;SDS011;11947;50.810;4.394;2023-06-22T00:10:12;6.50;;;4.45;;
23539;SDS011;11947;50.810;4.394;2023-06-22T00:12:43;6.32;;;3.80;;
23539;SDS011;11947;50.810;4.394;2023-06-22T00:15:12;6.40;;;4.40;;
23539;SDS011;11947;50.810;4.394;2023-06-22T00:17:41;5.75;;;4.10;;
23539;SDS011;11947;50.810;4.394;2023-06-22T00:20:10;6.57;;;3.65;;
23539;SDS011;11947;50.810;4.394;2023-06-22T00:22:37;5.13;;;3.72;;
23539;SDS011;11947;50.810;4.394;2023-06-22T00:27:52;6.05;;;3.45;;
23539;SDS011;11947;50.810;4.394;2023-06-22T00:30:18;6.78;;;3.83;;
23539;SDS011;11947;50.810;4.394;2023-06-22T00:32:46;7.82;;;4.28;;
23539;SDS011;11947;50.810;4.394;2023-06-22T00:35:12;7.07;;;3.80;;
23539;SDS011;11947;50.810;4.394;2023-06-22T00:37:39;7.07;;;3.92;;
23539;SDS011;11947;50.810;4.394;2023-06-22T00:40:08;6.00;;;3.75;;
23539;SDS011;11947;50.810;4.394;2023-06-22T00:42:38;6.22;;;4.10;;
23539;SDS011;11947;50.810;4.394;2023-06-22T00:45:09;4.60;;;3.88;;
23539;SDS011;11947;50.810;4.394;2023-06-22T00:47:36;7.45;;;3.78;;
23539;SDS011;11947;50.810;4.394;2023-06-22T00:50:03;6.60;;;4.20;;
23539;SDS011;11947;50.810;4.394;2023-06-22T00:52:32;6.97;;;4.00;;
23539;SDS011;11947;50.810;4.394;2023-06-22T00:55:15;6.18;;;4.43;;
23539;SDS011;11947;50.810;4.394;2023-06-22T00:57:47;8.30;;;4.43;;
23539;SDS011;11947;50.810;4.394;2023-06-22T01:00:24;5.82;;;3.65;;
23539;SDS011;11947;50.810;4.394;2023-06-22T01:02:51;9.15;;;4.45;;
23539;SDS011;11947;50.810;4.394;2023-06-22T01:05:21;9.52;;;4.85;;
23539;SDS011;11947;50.810;4.394;2023-06-22T01:10:44;7.85;;;4.65;;
23539;SDS011;11947;50.810;4.394;2023-06-22T01:18:47;8.90;;;4.85;;
23539;SDS011;11947;50.810;4.394;2023-06-22T01:21:17;10.73;;;5.10;;
23539;SDS011;11947;50.810;4.394;2023-06-22T01:29:45;11.05;;;4.90;;
23539;SDS011;11947;50.810;4.394;2023-06-22T01:32:28;6.93;;;4.53;;
23539;SDS011;11947;50.810;4.394;2023-06-22T01:35:03;7.03;;;4.63;;
23539;SDS011;11947;50.810;4.394;2023-06-22T01:37:34;7.50;;;4.72;;
23539;SDS011;11947;50.810;4.394;2023-06-22T01:40:12;8.55;;;4.95;;
23539;SDS011;11947;50.810;4.394;2023-06-22T01:42:40;7.55;;;4.80;;
23539;SDS011;11947;50.810;4.394;2023-06-22T01:45:16;8.98;;;4.85;;
23539;SDS011;11947;50.810;4.394;2023-06-22T01:47:47;8.67;;;4.63;;
23539;SDS011;11947;50.810;4.394;2023-06-22T01:50:16;10.45;;;5.45;;
23539;SDS011;11947;50.810;4.394;2023-06-22T01:52:47;9.75;;;5.65;;
23539;SDS011;11947;50.810;4.394;2023-06-22T01:55:13;9.35;;;5.30;;
23539;SDS011;11947;50.810;4.394;2023-06-22T01:57:38;8.68;;;5.43;;
23539;SDS011;11947;50.810;4.394;2023-06-22T02:00:10;10.75;;;5.78;;
23539;SDS011;11947;50.810;4.394;2023-06-22T02:05:44;10.45;;;5.95;;
23539;SDS011;11947;50.810;4.394;2023-06-22T02:08:15;10.88;;;6.82;;
23539;SDS011;11947;50.810;4.394;2023-06-22T02:10:45;11.13;;;6.03;;
23539;SDS011;11947;50.810;4.394;2023-06-22T02:13:13;11.75;;;6.03;;
23539;SDS011;11947;50.810;4.394;2023-06-22T02:15:40;12.32;;;6.55;;
23539;SDS011;11947;50.810;4.394;2023-06-22T02:18:07;9.95;;;6.47;;
23539;SDS011;11947;50.810;4.394;2023-06-22T02:20:32;12.20;;;7.28;;
23539;SDS011;11947;50.810;4.394;2023-06-22T02:23:02;14.68;;;6.78;;
23539;SDS011;11947;50.810;4.394;2023-06-22T02:25:28;11.82;;;6.50;;
23539;SDS011;11947;50.810;4.394;2023-06-22T02:27:53;9.90;;;6.60;;
23539;SDS011;11947;50.810;4.394;2023-06-22T02:30:19;11.48;;;6.53;;
23539;SDS011;11947;50.810;4.394;2023-06-22T02:32:45;11.18;;;6.85;;
23539;SDS011;11947;50.810;4.394;2023-06-22T02:35:11;12.13;;;6.35;;
23539;SDS011;11947;50.810;4.394;2023-06-22T02:37:37;12.57;;;6.80;;
23539;SDS011;11947;50.810;4.394;2023-06-22T02:40:07;12.48;;;6.63;;
23539;SDS011;11947;50.810;4.394;2023-06-22T02:42:34;10.27;;;6.32;;
23539;SDS011;11947;50.810;4.394;2023-06-22T02:45:00;12.27;;;6.68;;
23539;SDS011;11947;50.810;4.394;2023-06-22T02:47:26;11.75;;;6.38;;
23539;SDS011;11947;50.810;4.394;2023-06-22T02:49:51;10.35;;;6.05;;
23539;SDS011;11947;50.810;4.394;2023-06-22T02:52:17;13.48;;;6.63;;
23539;SDS011;11947;50.810;4.394;2023-06-22T02:54:43;10.23;;;6.40;;
23539;SDS011;11947;50.810;4.394;2023-06-22T02:57:12;10.13;;;6.22;;
23539;SDS011;11947;50.810;4.394;2023-06-22T02:59:40;10.55;;;6.45;;
23539;SDS011;11947;50.810;4.394;2023-06-22T03:02:07;10.13;;;6.50;;
23539;SDS011;11947;50.810;4.394;2023-06-22T03:04:37;9.93;;;6.85;;
23539;SDS011;11947;50.810;4.394;2023-06-22T03:07:03;12.93;;;6.95;;
23539;SDS011;11947;50.810;4.394;2023-06-22T03:09:29;14.90;;;7.55;;
23539;SDS011;11947;50.810;4.394;2023-06-22T03:11:54;11.30;;;6.90;;
23539;SDS011;11947;50.810;4.394;2023-06-22T03:14:20;9.65;;;6.80;;
23539;SDS011;11947;50.810;4.394;2023-06-22T03:16:46;13.10;;;6.75;;
23539;SDS011;11947;50.810;4.394;2023-06-22T03:19:12;10.90;;;7.20;;
23539;SDS011;11947;50.810;4.394;2023-06-22T03:21:39;12.77;;;7.78;;
23539;SDS011;11947;50.810;4.394;2023-06-22T03:24:06;11.07;;;6.97;;
23539;SDS011;11947;50.810;4.394;2023-06-22T03:26:33;12.93;;;7.03;;
23539;SDS011;11947;50.810;4.394;2023-06-22T03:29:00;12.43;;;7.07;;
23539;SDS011;11947;50.810;4.394;2023-06-22T03:31:29;11.88;;;6.93;;
23539;SDS011;11947;50.810;4.394;2023-06-22T03:33:54;11.05;;;6.97;;
23539;SDS011;11947;50.810;4.394;2023-06-22T03:36:20;11.80;;;6.70;;
23539;SDS011;11947;50.810;4.394;2023-06-22T03:38:48;13.40;;;6.60;;
23539;SDS011;11947;50.810;4.394;2023-06-22T03:41:16;11.52;;;6.68;;
23539;SDS011;11947;50.810;4.394;2023-06-22T03:44:03;12.50;;;7.28;;
23539;SDS011;11947;50.810;4.394;2023-06-22T03:46:30;10.55;;;6.82;;
23539;SDS011;11947;50.810;4.394;2023-06-22T03:48:57;11.93;;;6.80;;
23539;SDS011;11947;50.810;4.394;2023-06-22T03:51:22;10.38;;;6.47;;
23539;SDS011;11947;50.810;4.394;2023-06-22T03:53:48;11.80;;;7.25;;
23539;SDS011;11947;50.810;4.394;2023-06-22T03:56:14;12.10;;;7.20;;
23539;SDS011;11947;50.810;4.394;2023-06-22T03:58:45;11.55;;;7.45;;
23539;SDS011;11947;50.810;4.394;2023-06-22T04:01:10;12.77;;;7.65;;
23539;SDS011;11947;50.810;4.394;2023-06-22T04:03:36;13.63;;;8.15;;
23539;SDS011;11947;50.810;4.394;2023-06-22T04:06:03;12.10;;;7.28;;
23539;SDS011;11947;50.810;4.394;2023-06-22T04:08:29;13.20;;;8.50;;
23539;SDS011;11947;50.810;4.394;2023-06-22T04:10:55;10.55;;;7.13;;
23539;SDS011;11947;50.810;4.394;2023-06-22T04:13:20;14.05;;;8.30;;
23539;SDS011;11947;50.810;4.394;2023-06-22T04:15:46;11.35;;;7.63;;
23539;SDS011;11947;50.810;4.394;2023-06-22T04:18:18;14.55;;;7.88;;
23539;SDS011;11947;50.810;4.394;2023-06-22T04:20:44;14.70;;;8.45;;
23539;SDS011;11947;50.810;4.394;2023-06-22T04:23:12;17.20;;;8.63;;
23539;SDS011;11947;50.810;4.394;2023-06-22T04:25:37;12.10;;;7.85;;
23539;SDS011;11947;50.810;4.394;2023-06-22T04:28:06;13.48;;;7.40;;
23539;SDS011;11947;50.810;4.394;2023-06-22T04:30:37;12.77;;;7.43;;
23539;SDS011;11947;50.810;4.394;2023-06-22T04:33:14;11.95;;;7.93;;
23539;SDS011;11947;50.810;4.394;2023-06-22T04:35:40;13.07;;;7.82;;
23539;SDS011;11947;50.810;4.394;2023-06-22T04:38:12;12.10;;;7.05;;
23539;SDS011;11947;50.810;4.394;2023-06-22T04:40:42;12.18;;;7.35;;
23539;SDS011;11947;50.810;4.394;2023-06-22T04:43:10;11.98;;;7.82;;
23539;SDS011;11947;50.810;4.394;2023-06-22T04:45:35;11.38;;;7.57;;
23539;SDS011;11947;50.810;4.394;2023-06-22T04:48:05;13.27;;;8.10;;
23539;SDS011;11947;50.810;4.394;2023-06-22T04:50:33;14.70;;;8.63;;
23539;SDS011;11947;50.810;4.394;2023-06-22T04:52:58;15.35;;;9.52;;
23539;SDS011;11947;50.810;4.394;2023-06-22T04:55:24;17.73;;;9.30;;
23539;SDS011;11947;50.810;4.394;2023-06-22T04:57:50;14.68;;;9.60;;
23539;SDS011;11947;50.810;4.394;2023-06-22T05:00:17;19.30;;;10.60;;
23539;SDS011;11947;50.810;4.394;2023-06-22T05:02:44;16.45;;;10.65;;
23539;SDS011;11947;50.810;4.394;2023-06-22T05:05:11;22.00;;;11.75;;
23539;SDS011;11947;50.810;4.394;2023-06-22T05:07:44;41.97;;;13.57;;
23539;SDS011;11947;50.810;4.394;2023-06-22T05:10:33;40.38;;;13.55;;
23539;SDS011;11947;50.810;4.394;2023-06-22T05:13:02;28.35;;;13.10;;
23539;SDS011;11947;50.810;4.394;2023-06-22T05:15:27;36.65;;;14.40;;
23539;SDS011;11947;50.810;4.394;2023-06-22T05:18:04;26.30;;;14.48;;
23539;SDS011;11947;50.810;4.394;2023-06-22T05:20:30;29.73;;;15.15;;
23539;SDS011;11947;50.810;4.394;2023-06-22T05:22:56;54.90;;;16.60;;
23539;SDS011;11947;50.810;4.394;2023-06-22T05:25:22;41.20;;;16.45;;
23539;SDS011;11947;50.810;4.394;2023-06-22T05:27:47;39.85;;;18.13;;
23539;SDS011;11947;50.810;4.394;2023-06-22T05:30:13;38.05;;;19.30;;
23539;SDS011;11947;50.810;4.394;2023-06-22T05:32:42;45.15;;;22.50;;
23539;SDS011;11947;50.810;4.394;2023-06-22T05:35:12;48.28;;;25.50;;
23539;SDS011;11947;50.810;4.394;2023-06-22T05:37:38;59.38;;;30.20;;
23539;SDS011;11947;50.810;4.394;2023-06-22T05:40:04;58.03;;;30.52;;
23539;SDS011;11947;50.810;4.394;2023-06-22T05:42:32;58.42;;;31.33;;
23539;SDS011;11947;50.810;4.394;2023-06-22T05:44:58;57.92;;;31.83;;
23539;SDS011;11947;50.810;4.394;2023-06-22T05:47:23;62.13;;;31.67;;
23539;SDS011;11947;50.810;4.394;2023-06-22T05:49:49;54.88;;;31.35;;
23539;SDS011;11947;50.810;4.394;2023-06-22T05:52:15;57.85;;;31.08;;
23539;SDS011;11947;50.810;4.394;2023-06-22T05:54:40;60.28;;;32.95;;
23539;SDS011;11947;50.810;4.394;2023-06-22T05:57:08;56.28;;;31.27;;
23539;SDS011;11947;50.810;4.394;2023-06-22T05:59:36;57.03;;;29.80;;
23539;SDS011;11947;50.810;4.394;2023-06-22T06:02:05;47.70;;;28.60;;
23539;SDS011;11947;50.810;4.394;2023-06-22T06:04:31;46.90;;;27.23;;
23539;SDS011;11947;50.810;4.394;2023-06-22T06:06:56;43.30;;;26.55;;
23539;SDS011;11947;50.810;4.394;2023-06-22T06:09:22;48.30;;;25.90;;
23539;SDS011;11947;50.810;4.394;2023-06-22T06:11:49;43.72;;;25.40;;
23539;SDS011;11947;50.810;4.394;2023-06-22T06:14:15;44.30;;;25.95;;
23539;SDS011;11947;50.810;4.394;2023-06-22T06:16:42;43.40;;;25.42;;
23539;SDS011;11947;50.810;4.394;2023-06-22T06:19:07;40.88;;;24.77;;
23539;SDS011;11947;50.810;4.394;2023-06-22T06:21:33;43.63;;;26.27;;
23539;SDS011;11947;50.810;4.394;2023-06-22T06:23:58;44.85;;;25.75;;
23539;SDS011;11947;50.810;4.394;2023-06-22T06:26:24;48.50;;;26.65;;
23539;SDS011;11947;50.810;4.394;2023-06-22T06:28:55;49.20;;;26.80;;
23539;SDS011;11947;50.810;4.394;2023-06-22T06:31:21;47.13;;;27.17;;
23539;SDS011;11947;50.810;4.394;2023-06-22T06:33:48;47.10;;;25.67;;
23539;SDS011;11947;50.810;4.394;2023-06-22T06:36:13;47.70;;;26.60;;
23539;SDS011;11947;50.810;4.394;2023-06-22T06:38:39;41.08;;;25.13;;
23539;SDS011;11947;50.810;4.394;2023-06-22T06:41:04;45.08;;;25.23;;
23539;SDS011;11947;50.810;4.394;2023-06-22T06:43:30;44.80;;;24.52;;
23539;SDS011;11947;50.810;4.394;2023-06-22T06:45:55;43.30;;;25.52;;
23539;SDS011;11947;50.810;4.394;2023-06-22T06:48:21;42.05;;;24.83;;
23539;SDS011;11947;50.810;4.394;2023-06-22T06:50:47;43.45;;;25.55;;
23539;SDS011;11947;50.810;4.394;2023-06-22T06:53:12;45.40;;;25.15;;
23539;SDS011;11947;50.810;4.394;2023-06-22T06:55:38;44.22;;;25.35;;
23539;SDS011;11947;50.810;4.394;2023-06-22T06:58:04;41.08;;;24.30;;
23539;SDS011;11947;50.810;4.394;2023-06-22T07:00:32;39.88;;;23.77;;
23539;SDS011;11947;50.810;4.394;2023-06-22T07:02:58;40.83;;;23.92;;
23539;SDS011;11947;50.810;4.394;2023-06-22T07:05:23;41.80;;;24.63;;
23539;SDS011;11947;50.810;4.394;2023-06-22T07:07:49;37.72;;;24.10;;
23539;SDS011;11947;50.810;4.394;2023-06-22T07:10:15;40.65;;;24.50;;
23539;SDS011;11947;50.810;4.394;2023-06-22T07:12:40;40.38;;;24.92;;
23539;SDS011;11947;50.810;4.394;2023-06-22T07:15:07;41.03;;;24.90;;
23539;SDS011;11947;50.810;4.394;2023-06-22T07:17:34;42.38;;;24.90;;
23539;SDS011;11947;50.810;4.394;2023-06-22T07:20:05;42.08;;;27.00;;
23539;SDS011;11947;50.810;4.394;2023-06-22T07:23:01;44.85;;;28.38;;
23539;SDS011;11947;50.810;4.394;2023-06-22T07:26:10;40.70;;;26.77;;
23539;SDS011;11947;50.810;4.394;2023-06-22T07:28:37;41.78;;;25.83;;
23539;SDS011;11947;50.810;4.394;2023-06-22T07:31:05;32.47;;;22.55;;
23539;SDS011;11947;50.810;4.394;2023-06-22T07:33:31;33.08;;;22.08;;
23539;SDS011;11947;50.810;4.394;2023-06-22T07:35:57;32.28;;;20.33;;
23539;SDS011;11947;50.810;4.394;2023-06-22T07:38:22;30.33;;;21.08;;
23539;SDS011;11947;50.810;4.394;2023-06-22T07:40:48;35.25;;;20.42;;
23539;SDS011;11947;50.810;4.394;2023-06-22T07:43:15;32.05;;;20.88;;
23539;SDS011;11947;50.810;4.394;2023-06-22T07:45:43;33.03;;;21.15;;
23539;SDS011;11947;50.810;4.394;2023-06-22T07:48:22;33.35;;;21.63;;
23539;SDS011;11947;50.810;4.394;2023-06-22T07:50:48;33.42;;;20.95;;
23539;SDS011;11947;50.810;4.394;2023-06-22T07:53:14;33.08;;;20.67;;
23539;SDS011;11947;50.810;4.394;2023-06-22T07:55:40;32.67;;;20.77;;
23539;SDS011;11947;50.810;4.394;2023-06-22T07:58:05;35.83;;;21.80;;
23539;SDS011;11947;50.810;4.394;2023-06-22T08:00:31;33.90;;;21.30;;
23539;SDS011;11947;50.810;4.394;2023-06-22T08:02:58;33.03;;;22.20;;
23539;SDS011;11947;50.810;4.394;2023-06-22T08:05:24;29.13;;;20.25;;
23539;SDS011;11947;50.810;4.394;2023-06-22T08:07:49;33.13;;;20.35;;
23539;SDS011;11947;50.810;4.394;2023-06-22T08:10:15;31.95;;;19.92;;
23539;SDS011;11947;50.810;4.394;2023-06-22T08:12:41;30.02;;;20.33;;
23539;SDS011;11947;50.810;4.394;2023-06-22T08:15:07;29.23;;;20.00;;
23539;SDS011;11947;50.810;4.394;2023-06-22T08:17:33;31.55;;;19.13;;
23539;SDS011;11947;50.810;4.394;2023-06-22T08:19:59;28.05;;;19.60;;
23539;SDS011;11947;50.810;4.394;2023-06-22T08:22:25;29.83;;;19.17;;
23539;SDS011;11947;50.810;4.394;2023-06-22T08:24:51;30.17;;;19.90;;
23539;SDS011;11947;50.810;4.394;2023-06-22T08:27:16;26.60;;;18.50;;
23539;SDS011;11947;50.810;4.394;2023-06-22T08:29:44;30.35;;;19.48;;
23539;SDS011;11947;50.810;4.394;2023-06-22T08:32:12;31.33;;;20.13;;
23539;SDS011;11947;50.810;4.394;2023-06-22T08:34:38;30.08;;;19.77;;
23539;SDS011;11947;50.810;4.394;2023-06-22T08:37:07;27.20;;;19.10;;
23539;SDS011;11947;50.810;4.394;2023-06-22T08:39:36;29.90;;;20.63;;
23539;SDS011;11947;50.810;4.394;2023-06-22T08:42:02;32.40;;;19.55;;
23539;SDS011;11947;50.810;4.394;2023-06-22T08:44:28;31.40;;;20.95;;
23539;SDS011;11947;50.810;4.394;2023-06-22T08:46:53;34.15;;;21.83;;
23539;SDS011;11947;50.810;4.394;2023-06-22T08:49:19;30.48;;;21.15;;
23539;SDS011;11947;50.810;4.394;2023-06-22T08:51:44;35.15;;;21.20;;
23539;SDS011;11947;50.810;4.394;2023-06-22T08:54:12;35.65;;;23.30;;
23539;SDS011;11947;50.810;4.394;2023-06-22T08:56:38;31.40;;;22.38;;
23539;SDS011;11947;50.810;4.394;2023-06-22T08:59:04;30.70;;;20.50;;
23539;SDS011;11947;50.810;4.394;2023-06-22T09:01:32;30.75;;;21.38;;
23539;SDS011;11947;50.810;4.394;2023-06-22T09:03:58;29.52;;;20.80;;
23539;SDS011;11947;50.810;4.394;2023-06-22T09:06:25;29.35;;;20.70;;
23539;SDS011;11947;50.810;4.394;2023-06-22T09:08:50;32.25;;;19.83;;
23539;SDS011;11947;50.810;4.394;2023-06-22T09:11:16;27.58;;;19.08;;
23539;SDS011;11947;50.810;4.394;2023-06-22T09:13:42;30.95;;;19.38;;
23539;SDS011;11947;50.810;4.394;2023-06-22T09:16:08;25.80;;;19.00;;
23539;SDS011;11947;50.810;4.394;2023-06-22T09:18:33;30.05;;;19.73;;
23539;SDS011;11947;50.810;4.394;2023-06-22T09:20:59;30.08;;;18.75;;
23539;SDS011;11947;50.810;4.394;2023-06-22T09:23:25;31.33;;;20.02;;
23539;SDS011;11947;50.810;4.394;2023-06-22T09:25:51;31.15;;;20.05;;
23539;SDS011;11947;50.810;4.394;2023-06-22T09:28:16;32.90;;;20.95;;
23539;SDS011;11947;50.810;4.394;2023-06-22T09:30:42;36.35;;;23.00;;
23539;SDS011;11947;50.810;4.394;2023-06-22T09:33:09;31.88;;;22.15;;
23539;SDS011;11947;50.810;4.394;2023-06-22T09:35:35;35.38;;;23.08;;
23539;SDS011;11947;50.810;4.394;2023-06-22T09:38:01;43.55;;;22.85;;
23539;SDS011;11947;50.810;4.394;2023-06-22T09:40:26;47.05;;;22.95;;
23539;SDS011;11947;50.810;4.394;2023-06-22T09:42:53;48.22;;;21.65;;
23539;SDS011;11947;50.810;4.394;2023-06-22T09:45:19;43.30;;;21.13;;
23539;SDS011;11947;50.810;4.394;2023-06-22T09:47:44;47.53;;;21.80;;
23539;SDS011;11947;50.810;4.394;2023-06-22T09:50:10;45.15;;;21.63;;
23539;SDS011;11947;50.810;4.394;2023-06-22T09:52:36;39.63;;;23.67;;
23539;SDS011;11947;50.810;4.394;2023-06-22T09:55:01;52.35;;;24.48;;
23539;SDS011;11947;50.810;4.394;2023-06-22T09:57:28;46.15;;;25.95;;
23539;SDS011;11947;50.810;4.394;2023-06-22T09:59:54;47.55;;;26.05;;
23539;SDS011;11947;50.810;4.394;2023-06-22T10:02:20;45.00;;;26.02;;
23539;SDS011;11947;50.810;4.394;2023-06-22T10:04:47;57.90;;;27.58;;
23539;SDS011;11947;50.810;4.394;2023-06-22T10:07:13;49.17;;;26.75;;
23539;SDS011;11947;50.810;4.394;2023-06-22T10:09:38;48.58;;;27.67;;
23539;SDS011;11947;50.810;4.394;2023-06-22T10:12:04;50.53;;;28.05;;
23539;SDS011;11947;50.810;4.394;2023-06-22T10:14:30;46.75;;;26.83;;
23539;SDS011;11947;50.810;4.394;2023-06-22T10:16:56;47.70;;;27.63;;
23539;SDS011;11947;50.810;4.394;2023-06-22T10:19:21;51.95;;;28.70;;
23539;SDS011;11947;50.810;4.394;2023-06-22T10:21:47;51.92;;;29.33;;
23539;SDS011;11947;50.810;4.394;2023-06-22T10:24:13;50.70;;;28.70;;
23539;SDS011;11947;50.810;4.394;2023-06-22T10:26:38;46.60;;;28.15;;
23539;SDS011;11947;50.810;4.394;2023-06-22T10:29:04;51.97;;;29.58;;
23539;SDS011;11947;50.810;4.394;2023-06-22T10:31:29;54.60;;;31.23;;
23539;SDS011;11947;50.810;4.394;2023-06-22T10:33:55;54.70;;;30.88;;
23539;SDS011;11947;50.810;4.394;2023-06-22T10:36:21;57.35;;;31.33;;
23539;SDS011;11947;50.810;4.394;2023-06-22T10:38:48;53.40;;;31.20;;
23539;SDS011;11947;50.810;4.394;2023-06-22T10:41:16;51.30;;;32.58;;
23539;SDS011;11947;50.810;4.394;2023-06-22T10:43:42;56.03;;;32.15;;
23539;SDS011;11947;50.810;4.394;2023-06-22T10:46:07;59.22;;;33.28;;
23539;SDS011;11947;50.810;4.394;2023-06-22T10:48:34;54.95;;;32.38;;
23539;SDS011;11947;50.810;4.394;2023-06-22T10:50:59;52.90;;;31.45;;
23539;SDS011;11947;50.810;4.394;2023-06-22T10:53:25;58.88;;;33.88;;
23539;SDS011;11947;50.810;4.394;2023-06-22T10:55:50;62.97;;;33.28;;
23539;SDS011;11947;50.810;4.394;2023-06-22T10:58:18;62.80;;;34.97;;
23539;SDS011;11947;50.810;4.394;2023-06-22T11:00:44;62.45;;;35.35;;
23539;SDS011;11947;50.810;4.394;2023-06-22T11:03:10;64.43;;;35.75;;
23539;SDS011;11947;50.810;4.394;2023-06-22T11:05:35;61.97;;;36.17;;
23539;SDS011;11947;50.810;4.394;2023-06-22T11:08:01;67.88;;;37.55;;
23539;SDS011;11947;50.810;4.394;2023-06-22T11:10:27;64.20;;;35.92;;
23539;SDS011;11947;50.810;4.394;2023-06-22T11:12:56;66.47;;;37.10;;
23539;SDS011;11947;50.810;4.394;2023-06-22T11:15:22;65.78;;;39.42;;
23539;SDS011;11947;50.810;4.394;2023-06-22T11:17:49;69.93;;;38.58;;
23539;SDS011;11947;50.810;4.394;2023-06-22T11:20:14;75.40;;;39.88;;
23539;SDS011;11947;50.810;4.394;2023-06-22T11:22:40;70.93;;;39.80;;
23539;SDS011;11947;50.810;4.394;2023-06-22T11:25:06;76.90;;;40.75;;
23539;SDS011;11947;50.810;4.394;2023-06-22T11:27:33;71.82;;;42.85;;
23539;SDS011;11947;50.810;4.394;2023-06-22T11:29:58;76.50;;;41.83;;
23539;SDS011;11947;50.810;4.394;2023-06-22T11:32:24;71.80;;;40.65;;
23539;SDS011;11947;50.810;4.394;2023-06-22T11:34:50;76.18;;;41.33;;
23539;SDS011;11947;50.810;4.394;2023-06-22T11:37:15;73.55;;;42.20;;
23539;SDS011;11947;50.810;4.394;2023-06-22T11:39:41;73.90;;;41.38;;
23539;SDS011;11947;50.810;4.394;2023-06-22T11:42:07;71.18;;;40.47;;
23539;SDS011;11947;50.810;4.394;2023-06-22T11:44:34;75.53;;;43.15;;
23539;SDS011;11947;50.810;4.394;2023-06-22T11:46:59;75.78;;;43.28;;
23539;SDS011;11947;50.810;4.394;2023-06-22T11:49:26;75.30;;;42.45;;
23539;SDS011;11947;50.810;4.394;2023-06-22T11:51:52;73.55;;;41.47;;
23539;SDS011;11947;50.810;4.394;2023-06-22T11:54:18;76.70;;;42.97;;
23539;SDS011;11947;50.810;4.394;2023-06-22T11:56:43;76.30;;;42.95;;
23539;SDS011;11947;50.810;4.394;2023-06-22T11:59:09;79.10;;;41.65;;
23539;SDS011;11947;50.810;4.394;2023-06-22T12:01:35;77.28;;;41.72;;
23539;SDS011;11947;50.810;4.394;2023-06-22T12:04:00;77.40;;;42.25;;
23539;SDS011;11947;50.810;4.394;2023-06-22T12:06:26;75.68;;;41.50;;
23539;SDS011;11947;50.810;4.394;2023-06-22T12:08:52;76.07;;;39.92;;
23539;SDS011;11947;50.810;4.394;2023-06-22T12:11:17;74.38;;;41.83;;
23539;SDS011;11947;50.810;4.394;2023-06-22T12:13:43;79.65;;;40.88;;
23539;SDS011;11947;50.810;4.394;2023-06-22T12:16:08;78.00;;;41.08;;
23539;SDS011;11947;50.810;4.394;2023-06-22T12:18:34;73.80;;;41.10;;
23539;SDS011;11947;50.810;4.394;2023-06-22T12:21:00;78.43;;;42.63;;
23539;SDS011;11947;50.810;4.394;2023-06-22T12:23:26;79.07;;;42.20;;
23539;SDS011;11947;50.810;4.394;2023-06-22T12:25:51;80.95;;;43.67;;
23539;SDS011;11947;50.810;4.394;2023-06-22T12:28:17;72.28;;;40.22;;
23539;SDS011;11947;50.810;4.394;2023-06-22T12:30:42;79.40;;;41.38;;
23539;SDS011;11947;50.810;4.394;2023-06-22T12:33:08;81.38;;;43.45;;
23539;SDS011;11947;50.810;4.394;2023-06-22T12:35:34;79.72;;;43.05;;
23539;SDS011;11947;50.810;4.394;2023-06-22T12:38:00;85.18;;;43.25;;
23539;SDS011;11947;50.810;4.394;2023-06-22T12:40:25;84.95;;;42.50;;
23539;SDS011;11947;50.810;4.394;2023-06-22T12:42:51;84.55;;;43.60;;
23539;SDS011;11947;50.810;4.394;2023-06-22T12:45:16;89.05;;;44.80;;
23539;SDS011;11947;50.810;4.394;2023-06-22T12:47:43;91.47;;;44.97;;
23539;SDS011;11947;50.810;4.394;2023-06-22T12:50:09;87.03;;;45.47;;
23539;SDS011;11947;50.810;4.394;2023-06-22T12:52:36;99.05;;;45.95;;
23539;SDS011;11947;50.810;4.394;2023-06-22T12:55:06;92.30;;;46.40;;
23539;SDS011;11947;50.810;4.394;2023-06-22T12:57:32;92.88;;;47.65;;
23539;SDS011;11947;50.810;4.394;2023-06-22T12:59:57;95.53;;;48.22;;
23539;SDS011;11947;50.810;4.394;2023-06-22T13:02:25;97.13;;;48.20;;
23539;SDS011;11947;50.810;4.394;2023-06-22T13:04:51;92.90;;;48.28;;
23539;SDS011;11947;50.810;4.394;2023-06-22T13:07:31;111.00;;;48.90;;
23539;SDS011;11947;50.810;4.394;2023-06-22T13:09:56;98.45;;;49.58;;
23539;SDS011;11947;50.810;4.394;2023-06-22T13:12:22;108.15;;;52.03;;
23539;SDS011;11947;50.810;4.394;2023-06-22T13:14:48;117.57;;;53.25;;
23539;SDS011;11947;50.810;4.394;2023-06-22T13:17:14;117.90;;;51.97;;
23539;SDS011;11947;50.810;4.394;2023-06-22T13:19:40;117.20;;;52.70;;
23539;SDS011;11947;50.810;4.394;2023-06-22T13:22:09;122.43;;;53.15;;
23539;SDS011;11947;50.810;4.394;2023-06-22T13:24:57;170.27;;;52.92;;
23539;SDS011;11947;50.810;4.394;2023-06-22T13:27:24;150.63;;;54.88;;
23539;SDS011;11947;50.810;4.394;2023-06-22T13:29:50;116.80;;;54.15;;
23539;SDS011;11947;50.810;4.394;2023-06-22T13:32:16;133.00;;;57.08;;
23539;SDS011;11947;50.810;4.394;2023-06-22T13:34:42;123.47;;;55.83;;
23539;SDS011;11947;50.810;4.394;2023-06-22T13:37:09;130.45;;;57.40;;
23539;SDS011;11947;50.810;4.394;2023-06-22T13:39:51;143.75;;;57.30;;
23539;SDS011;11947;50.810;4.394;2023-06-22T13:42:21;130.60;;;57.03;;
23539;SDS011;11947;50.810;4.394;2023-06-22T13:44:47;144.48;;;58.13;;
23539;SDS011;11947;50.810;4.394;2023-06-22T13:47:12;119.45;;;54.58;;
23539;SDS011;11947;50.810;4.394;2023-06-22T13:49:39;126.75;;;53.75;;
23539;SDS011;11947;50.810;4.394;2023-06-22T13:52:05;125.40;;;54.08;;
23539;SDS011;11947;50.810;4.394;2023-06-22T13:54:35;117.53;;;53.55;;
23539;SDS011;11947;50.810;4.394;2023-06-22T13:57:01;112.55;;;52.28;;
23539;SDS011;11947;50.810;4.394;2023-06-22T13:59:27;120.28;;;54.88;;
23539;SDS011;11947;50.810;4.394;2023-06-22T14:01:53;118.53;;;52.42;;
23539;SDS011;11947;50.810;4.394;2023-06-22T14:04:19;118.97;;;53.65;;
23539;SDS011;11947;50.810;4.394;2023-06-22T14:06:45;123.22;;;53.42;;
23539;SDS011;11947;50.810;4.394;2023-06-22T14:09:10;119.70;;;53.70;;
23539;SDS011;11947;50.810;4.394;2023-06-22T14:11:36;110.13;;;52.55;;
23539;SDS011;11947;50.810;4.394;2023-06-22T14:14:03;118.78;;;53.10;;
23539;SDS011;11947;50.810;4.394;2023-06-22T14:16:28;115.93;;;51.78;;
23539;SDS011;11947;50.810;4.394;2023-06-22T14:18:54;114.20;;;53.85;;
23539;SDS011;11947;50.810;4.394;2023-06-22T14:21:19;108.00;;;52.03;;
23539;SDS011;11947;50.810;4.394;2023-06-22T14:23:45;114.50;;;51.55;;
23539;SDS011;11947;50.810;4.394;2023-06-22T14:26:14;138.30;;;54.08;;
23539;SDS011;11947;50.810;4.394;2023-06-22T14:28:47;108.15;;;52.05;;
23539;SDS011;11947;50.810;4.394;2023-06-22T14:31:15;115.68;;;51.50;;
23539;SDS011;11947;50.810;4.394;2023-06-22T14:33:53;112.93;;;52.72;;
23539;SDS011;11947;50.810;4.394;2023-06-22T14:36:20;102.60;;;50.63;;
23539;SDS011;11947;50.810;4.394;2023-06-22T14:38:56;103.40;;;52.35;;
23539;SDS011;11947;50.810;4.394;2023-06-22T14:41:31;102.22;;;51.53;;
23539;SDS011;11947;50.810;4.394;2023-06-22T14:44:04;100.78;;;50.28;;
23539;SDS011;11947;50.810;4.394;2023-06-22T14:46:33;106.45;;;51.38;;